Time;durP1;ratioP1;P1;durP2;ratioP2;P2;SDS_P1;SDS_P2;PMS_P1;PMS_P2;Temp;Humidity;BMP_temperature;BMP_pressure;BME280_temperature;BME280_humidity;BME280_pressure;Samples;Min_cycle;Max_cycle;Signal;HPM_P1;HPM_P2
2022/08/21 00:00:00;;;;;;;8.33;4.97;;;;;;;-145.18;100.00;46648.69;5012372;28;20375;-81
2022/08/21 00:02:27;;;;;;;10.77;4.80;;;;;;;-145.18;100.00;46644.78;5013423;28;20049;-81
2022/08/21 00:04:54;;;;;;;9.57;4.70;;;;;;;-145.18;100.00;46652.59;5026212;28;20112;-81
2022/08/21 00:07:20;;;;;;;10.07;4.83;;;;;;;-145.18;100.00;46654.53;5032891;28;20087;-81
2022/08/21 00:09:45;;;;;;;7.80;4.40;;;;;;;-145.18;100.00;46654.53;5033581;28;20113;-81
2022/08/21 00:12:11;;;;;;;13.27;4.90;;;;;;;-145.18;100.00;46652.59;5032803;28;20101;-78
2022/08/21 00:14:37;;;;;;;12.67;4.63;;;;;;;-145.18;100.00;46648.69;5033426;28;20037;-80
2022/08/21 00:17:04;;;;;;;7.90;4.07;;;;;;;-145.18;100.00;46654.53;5032452;28;20045;-80
2022/08/21 00:19:31;;;;;;;6.47;4.00;;;;;;;-145.18;100.00;46656.50;5033005;28;20041;-81
2022/08/21 00:21:56;;;;;;;6.93;4.47;;;;;;;-145.18;100.00;46656.50;5032350;28;20474;-81
2022/08/21 00:24:22;;;;;;;8.47;4.33;;;;;;;-145.18;100.00;46652.59;5033044;28;20111;-81
2022/08/21 00:26:48;;;;;;;7.97;4.57;;;;;;;-145.18;100.00;46658.44;5032634;28;20490;-81
2022/08/21 00:29:14;;;;;;;7.87;3.80;;;;;;;-145.18;100.00;46656.50;5032523;28;20034;-81
2022/08/21 00:31:41;;;;;;;8.43;4.03;;;;;;;-145.18;100.00;46654.53;5032716;28;20638;-81
2022/08/21 00:34:07;;;;;;;8.70;3.93;;;;;;;-145.18;100.00;46656.50;5032516;28;20125;-81
2022/08/21 00:36:33;;;;;;;8.90;4.57;;;;;;;-145.18;100.00;46656.50;5031937;28;20477;-81
2022/08/21 00:38:58;;;;;;;9.93;4.23;;;;;;;-145.18;100.00;46660.41;5032048;28;20390;-82
2022/08/21 00:41:23;;;;;;;12.03;4.17;;;;;;;-145.18;100.00;46656.50;5032160;28;20038;-81
2022/08/21 00:43:50;;;;;;;9.97;4.30;;;;;;;-145.18;100.00;46656.50;5031797;28;20124;-81
2022/08/21 00:46:15;;;;;;;24.27;4.73;;;;;;;-145.18;100.00;46654.53;5031497;28;20036;-81
2022/08/21 00:48:41;;;;;;;6.83;4.20;;;;;;;-145.18;100.00;46660.41;5032195;28;20030;-80
2022/08/21 00:51:11;;;;;;;13.53;5.10;;;;;;;-145.18;100.00;46656.50;5031853;28;20549;-81
2022/08/21 00:53:40;;;;;;;6.10;4.20;;;;;;;-145.18;100.00;46660.41;5032118;28;20467;-81
2022/08/21 00:56:08;;;;;;;9.50;5.07;;;;;;;-145.18;100.00;46656.50;5031229;28;20493;-81
2022/08/21 00:58:35;;;;;;;10.27;4.40;;;;;;;-145.18;100.00;46656.50;5032025;28;20036;-81
2022/08/21 01:01:02;;;;;;;12.13;4.30;;;;;;;-145.18;100.00;46660.41;5031563;28;20084;-81
2022/08/21 01:03:27;;;;;;;11.33;4.43;;;;;;;-145.18;100.00;46654.53;5031462;28;20660;-81
2022/08/21 01:05:53;;;;;;;9.10;4.30;;;;;;;-145.18;100.00;46652.59;5031613;28;20029;-81
2022/08/21 01:08:20;;;;;;;11.30;4.80;;;;;;;-145.18;100.00;46654.53;5031566;28;20497;-80
2022/08/21 01:10:47;;;;;;;7.10;4.73;;;;;;;-145.18;100.00;46654.53;5031776;28;20116;-80
2022/08/21 01:13:16;;;;;;;9.53;5.07;;;;;;;-145.18;100.00;46650.63;5031430;28;20037;-80
2022/08/21 01:15:46;;;;;;;8.47;5.13;;;;;;;-145.18;100.00;46652.59;5031398;28;20033;-80
2022/08/21 01:18:13;;;;;;;11.17;5.70;;;;;;;-145.18;100.00;46654.53;5031556;28;20029;-81
2022/08/21 01:20:42;;;;;;;12.80;5.40;;;;;;;-145.18;100.00;46652.59;5031852;28;20029;-81
2022/08/21 01:23:07;;;;;;;10.10;5.37;;;;;;;-145.18;100.00;46652.59;5031237;28;20496;-81
2022/08/21 01:25:34;;;;;;;9.57;4.97;;;;;;;-145.18;100.00;46660.41;5031484;28;20029;-81
2022/08/21 01:28:09;;;;;;;8.20;4.93;;;;;;;-145.18;100.00;46656.50;5031184;28;20029;-81
2022/08/21 01:30:36;;;;;;;14.37;5.23;;;;;;;-145.18;100.00;46654.53;5030685;28;20018;-81
2022/08/21 01:33:01;;;;;;;10.53;5.73;;;;;;;-145.18;100.00;46652.59;5031123;28;20114;-81
2022/08/21 01:35:27;;;;;;;9.10;4.47;;;;;;;-145.18;100.00;46656.50;5031374;28;20116;-79
2022/08/21 01:37:52;;;;;;;10.23;4.77;;;;;;;-145.18;100.00;46654.53;5031204;28;20554;-79
2022/08/21 01:40:18;;;;;;;9.50;4.83;;;;;;;-145.18;100.00;46652.59;5031241;28;20048;-78
2022/08/21 01:42:45;;;;;;;11.67;5.67;;;;;;;-145.18;100.00;46652.59;5029792;28;20069;-78
2022/08/21 01:45:12;;;;;;;10.43;5.17;;;;;;;-145.18;100.00;46652.59;5030946;28;20775;-79
2022/08/21 01:47:38;;;;;;;12.73;5.23;;;;;;;-145.18;100.00;46654.53;5031069;28;20095;-79
2022/08/21 01:50:07;;;;;;;7.80;4.67;;;;;;;-145.18;100.00;46652.59;5031277;28;20058;-79
2022/08/21 01:52:33;;;;;;;10.83;5.00;;;;;;;-145.18;100.00;46650.63;5031106;28;20601;-79
2022/08/21 01:54:59;;;;;;;10.67;5.50;;;;;;;-145.18;100.00;46648.69;5031957;28;20033;-79
2022/08/21 01:57:24;;;;;;;8.87;5.30;;;;;;;-145.18;100.00;46652.59;5017542;28;20085;-79
2022/08/21 01:59:50;;;;;;;9.90;6.07;;;;;;;-145.18;100.00;46648.69;5011963;28;20135;-79
2022/08/21 02:02:15;;;;;;;9.93;5.87;;;;;;;-145.18;100.00;46654.53;5144965;22;20088;-79
2022/08/21 02:04:40;;;;;;;15.10;6.80;;;;;;;-145.18;100.00;46650.63;5022181;28;20044;-78
2022/08/21 02:07:06;;;;;;;9.67;6.07;;;;;;;-145.18;100.00;46648.69;5013505;28;20037;-79
2022/08/21 02:09:32;;;;;;;11.10;5.87;;;;;;;-145.18;100.00;46648.69;5030909;28;20477;-78
2022/08/21 02:11:58;;;;;;;11.93;6.17;;;;;;;-145.18;100.00;46652.59;5030529;28;20074;-78
2022/08/21 02:14:23;;;;;;;10.67;6.17;;;;;;;-145.18;100.00;46642.81;5031412;28;20029;-80
2022/08/21 02:16:48;;;;;;;13.47;6.23;;;;;;;-145.18;100.00;46646.72;5030703;28;20056;-80
2022/08/21 02:19:16;;;;;;;9.93;6.30;;;;;;;-145.18;100.00;46648.69;5031408;28;20035;-80
2022/08/21 02:21:41;;;;;;;15.93;6.20;;;;;;;-145.18;100.00;46646.72;5030847;28;20047;-80
2022/08/21 02:24:07;;;;;;;14.63;6.80;;;;;;;-145.18;100.00;46642.81;5031138;28;20091;-81
2022/08/21 02:26:33;;;;;;;10.83;5.97;;;;;;;-145.18;100.00;46650.63;5030818;28;20037;-81
2022/08/21 02:28:58;;;;;;;15.87;6.43;;;;;;;-145.18;100.00;46648.69;5012863;28;20041;-80
2022/08/21 02:31:24;;;;;;;10.60;6.40;;;;;;;-145.18;100.00;46650.63;5030798;28;20389;-80
2022/08/21 02:33:50;;;;;;;11.43;5.93;;;;;;;-145.18;100.00;46648.69;5030090;28;20745;-80
2022/08/21 02:36:15;;;;;;;9.67;6.20;;;;;;;-145.18;100.00;46648.69;5030655;28;20044;-80
2022/08/21 02:38:41;;;;;;;9.70;5.27;;;;;;;-145.18;100.00;46654.53;5030285;28;20040;-80
2022/08/21 02:41:12;;;;;;;9.83;5.27;;;;;;;-145.18;100.00;46648.69;5031884;28;20033;-80
2022/08/21 02:43:37;;;;;;;7.17;4.37;;;;;;;-145.18;100.00;46648.69;5033716;28;20100;-80
2022/08/21 02:46:05;;;;;;;8.47;5.80;;;;;;;-145.18;100.00;46646.72;5034676;28;20121;-80
2022/08/21 02:48:32;;;;;;;9.23;5.93;;;;;;;-145.18;100.00;46654.53;5034050;28;20029;-80
2022/08/21 02:51:07;;;;;;;16.37;6.77;;;;;;;-145.18;100.00;46646.72;5034247;28;20116;-79
2022/08/21 02:53:33;;;;;;;10.70;6.83;;;;;;;-145.18;100.00;46646.72;5033940;28;20029;-80
2022/08/21 02:56:01;;;;;;;10.23;6.13;;;;;;;-145.18;100.00;46640.88;5016173;28;20457;-80
2022/08/21 02:58:31;;;;;;;12.47;6.47;;;;;;;-145.18;100.00;46650.63;5033627;28;20056;-80
2022/08/21 03:00:57;;;;;;;12.60;6.70;;;;;;;-145.18;100.00;46646.72;5033821;28;20061;-80
2022/08/21 03:03:24;;;;;;;12.97;6.70;;;;;;;-145.18;100.00;46642.81;5033144;28;20045;-80
2022/08/21 03:05:50;;;;;;;11.33;6.30;;;;;;;-145.18;100.00;46644.78;5033621;28;20493;-78
2022/08/21 03:08:16;;;;;;;10.67;6.73;;;;;;;-145.18;100.00;46644.78;5033479;28;20025;-81
2022/08/21 03:10:46;;;;;;;13.87;8.07;;;;;;;-145.18;100.00;46640.88;5033585;28;20543;-81
2022/08/21 03:13:13;;;;;;;17.00;7.17;;;;;;;-145.18;100.00;46644.78;5033398;28;20383;-81
2022/08/21 03:15:39;;;;;;;14.30;7.13;;;;;;;-145.18;100.00;46648.69;5033463;28;20029;-81
2022/08/21 03:18:06;;;;;;;12.70;6.97;;;;;;;-145.18;100.00;46646.72;5033324;28;20036;-81
2022/08/21 03:20:33;;;;;;;13.37;6.93;;;;;;;-145.18;100.00;46646.72;5033561;28;20068;-80
2022/08/21 03:23:00;;;;;;;11.43;6.87;;;;;;;-145.18;100.00;46648.69;5032919;28;20026;-80
2022/08/21 03:25:26;;;;;;;11.70;6.97;;;;;;;-145.18;100.00;46644.78;5033602;28;20385;-80
2022/08/21 03:27:52;;;;;;;13.77;8.60;;;;;;;-145.18;100.00;46650.63;5033090;28;20501;-79
2022/08/21 03:30:20;;;;;;;16.63;7.80;;;;;;;-145.18;100.00;46644.78;5033363;28;20031;-78
2022/08/21 03:32:47;;;;;;;13.83;8.87;;;;;;;-145.18;100.00;46640.88;5032802;28;20486;-79
2022/08/21 03:35:13;;;;;;;14.43;7.40;;;;;;;-145.18;100.00;46640.88;5033112;28;20045;-78
2022/08/21 03:37:39;;;;;;;15.50;7.73;;;;;;;-145.18;100.00;46642.81;5015168;28;20037;-79
2022/08/21 03:40:06;;;;;;;13.03;7.83;;;;;;;-145.18;100.00;46642.81;5033172;28;20045;-79
2022/08/21 03:42:32;;;;;;;14.00;7.23;;;;;;;-145.18;100.00;46642.81;5032677;28;20498;-78
2022/08/21 03:44:57;;;;;;;14.17;6.87;;;;;;;-145.18;100.00;46638.91;5032870;28;20171;-78
2022/08/21 03:47:23;;;;;;;8.00;5.87;;;;;;;-145.18;100.00;46642.81;5032986;28;20516;-79
2022/08/21 03:49:49;;;;;;;12.97;7.37;;;;;;;-145.18;100.00;46638.91;5033190;28;20046;-79
2022/08/21 03:52:15;;;;;;;14.07;7.77;;;;;;;-145.18;100.00;46638.91;5032039;28;20041;-79
2022/08/21 03:54:41;;;;;;;11.77;7.00;;;;;;;-145.18;100.00;46676.03;5032825;28;20026;-79
2022/08/21 03:57:08;;;;;;;14.60;7.67;;;;;;;-145.18;100.00;46642.81;5014964;28;20047;-79
2022/08/21 03:59:34;;;;;;;15.10;7.43;;;;;;;-145.18;100.00;46640.88;5033015;28;20029;-79
2022/08/21 04:02:02;;;;;;;14.53;7.70;;;;;;;-145.18;100.00;46677.97;5032190;28;20420;-79
2022/08/21 04:04:28;;;;;;;12.97;7.77;;;;;;;-145.18;100.00;46642.81;5032896;28;20030;-80
2022/08/21 04:06:54;;;;;;;10.00;7.40;;;;;;;-145.18;100.00;46640.88;5032015;28;20118;-79
2022/08/21 04:09:19;;;;;;;11.83;6.83;;;;;;;-145.18;100.00;46644.78;5032200;28;20429;-79
2022/08/21 04:11:46;;;;;;;14.07;7.87;;;;;;;-145.18;100.00;46640.88;5032288;28;20050;-79
2022/08/21 04:14:13;;;;;;;18.00;7.93;;;;;;;-145.18;100.00;46640.88;5031923;28;20041;-79
2022/08/21 04:16:38;;;;;;;10.97;7.53;;;;;;;-145.18;100.00;46640.88;5032068;28;20436;-79
2022/08/21 04:19:04;;;;;;;15.77;8.17;;;;;;;-145.18;100.00;46638.91;5031766;28;20045;-79
2022/08/21 04:21:30;;;;;;;16.40;8.40;;;;;;;-145.18;100.00;46640.88;5032198;28;20654;-79
2022/08/21 04:23:56;;;;;;;15.37;7.70;;;;;;;-145.18;100.00;46638.91;5013801;28;20092;-78
2022/08/21 04:26:22;;;;;;;15.90;8.47;;;;;;;-145.18;100.00;46660.41;5032136;28;20095;-78
2022/08/21 04:28:47;;;;;;;11.83;6.40;;;;;;;-145.18;100.00;46660.41;5031589;28;20453;-79
2022/08/21 04:31:13;;;;;;;12.13;7.57;;;;;;;-145.18;100.00;46677.97;5031457;28;20083;-78
2022/08/21 04:33:38;;;;;;;11.27;6.73;;;;;;;-145.18;100.00;46640.88;5025015;28;20117;-79
2022/08/21 04:36:04;;;;;;;12.60;6.70;;;;;;;-145.18;100.00;46638.91;5030612;28;20140;-79
2022/08/21 04:38:31;;;;;;;10.77;6.90;;;;;;;-145.18;100.00;46638.91;5032949;28;20033;-78
2022/08/21 04:40:57;;;;;;;13.43;6.50;;;;;;;-145.18;100.00;46640.88;5029034;28;20075;-78
2022/08/21 04:43:23;;;;;;;11.77;6.40;;;;;;;-145.18;100.00;46638.91;5030263;28;20037;-78
2022/08/21 04:45:49;;;;;;;15.00;7.30;;;;;;;-145.18;100.00;46640.88;5030408;28;20050;-78
2022/08/21 04:48:16;;;;;;;14.93;7.07;;;;;;;-145.18;100.00;46640.88;5030456;28;20043;-78
2022/08/21 04:51:00;;;;;;;12.43;7.33;;;;;;;-145.18;100.00;46640.88;5030473;28;20036;-78
2022/08/21 04:53:30;;;;;;;11.33;5.83;;;;;;;-145.18;100.00;46636.94;5029414;28;20029;-78
2022/08/21 04:55:57;;;;;;;12.47;6.20;;;;;;;-145.18;100.00;46636.94;5025509;28;20048;-77
2022/08/21 04:58:26;;;;;;;13.43;5.97;;;;;;;-145.18;100.00;46640.88;5030950;28;20029;-79
2022/08/21 05:00:54;;;;;;;23.77;7.00;;;;;;;-145.18;100.00;46638.91;5033244;28;20041;-79
2022/08/21 05:03:21;;;;;;;14.97;6.53;;;;;;;-145.18;100.00;46638.91;5029534;28;20183;-78
2022/08/21 05:05:47;;;;;;;12.17;6.53;;;;;;;-145.18;100.00;46640.88;5028002;28;20549;-79
2022/08/21 05:08:15;;;;;;;11.97;6.10;;;;;;;-145.18;100.00;46640.88;5030345;28;20172;-79
2022/08/21 05:10:42;;;;;;;10.73;5.50;;;;;;;-145.18;100.00;46636.94;5030448;28;20079;-79
2022/08/21 05:13:08;;;;;;;12.93;6.20;;;;;;;-145.18;100.00;46636.94;5033014;28;20119;-79
2022/08/21 05:15:33;;;;;;;14.80;6.50;;;;;;;-145.18;100.00;46636.94;5035522;28;20041;-79
2022/08/21 05:17:59;;;;;;;14.43;6.37;;;;;;;-145.18;100.00;46636.94;5029784;28;20037;-78
2022/08/21 05:20:24;;;;;;;9.80;6.23;;;;;;;-145.18;100.00;46638.91;5030088;28;20036;-78
2022/08/21 05:22:49;;;;;;;12.80;5.97;;;;;;;-145.18;100.00;46636.94;5029814;28;20047;-79
2022/08/21 05:25:16;;;;;;;13.23;5.80;;;;;;;-145.18;100.00;46640.88;5030456;28;20072;-78
2022/08/21 05:27:42;;;;;;;13.93;6.20;;;;;;;-145.18;100.00;46638.91;5029827;28;20034;-79
2022/08/21 05:30:09;;;;;;;13.07;6.23;;;;;;;-145.18;100.00;46638.91;5030732;28;20060;-79
2022/08/21 05:32:35;;;;;;;13.47;5.83;;;;;;;-145.18;100.00;46642.81;5030282;28;20129;-78
2022/08/21 05:35:02;;;;;;;15.37;6.03;;;;;;;-145.18;100.00;46636.94;5030571;28;21047;-79
2022/08/21 05:37:27;;;;;;;11.07;5.90;;;;;;;-145.18;100.00;46640.88;5011965;28;20137;-80
2022/08/21 05:39:52;;;;;;;13.60;6.30;;;;;;;-145.18;100.00;46640.88;5029522;28;20045;-79
2022/08/21 05:42:18;;;;;;;14.63;6.13;;;;;;;-145.18;100.00;46640.88;5030269;28;20041;-77
2022/08/21 05:44:43;;;;;;;14.37;6.07;;;;;;;-145.18;100.00;46638.91;5030400;28;20072;-80
2022/08/21 05:47:10;;;;;;;12.40;6.27;;;;;;;-145.18;100.00;46635.00;5029494;28;20032;-80
2022/08/21 05:49:36;;;;;;;15.17;6.60;;;;;;;-145.18;100.00;46644.78;5025236;28;20049;-78
2022/08/21 05:52:02;;;;;;;11.87;6.73;;;;;;;-145.18;100.00;46635.00;5029735;28;20913;-81
2022/08/21 05:54:27;;;;;;;12.67;7.03;;;;;;;-145.18;100.00;46635.00;5030212;28;20417;-81
2022/08/21 05:56:53;;;;;;;12.13;6.57;;;;;;;-145.18;100.00;46636.94;5030213;28;20041;-81
2022/08/21 05:59:18;;;;;;;15.17;7.33;;;;;;;-145.18;100.00;46636.94;5029094;28;20454;-80
2022/08/21 06:01:45;;;;;;;16.83;7.37;;;;;;;-145.18;100.00;46635.00;5030168;28;20033;-81
2022/08/21 06:04:11;;;;;;;19.10;7.97;;;;;;;-145.18;100.00;46636.94;5029856;28;20049;-81
2022/08/21 06:06:36;;;;;;;19.07;8.37;;;;;;;-145.18;100.00;46635.00;5030359;28;20081;-81
2022/08/21 06:09:02;;;;;;;16.30;8.07;;;;;;;-145.18;100.00;46635.00;5029800;28;20041;-81
2022/08/21 06:11:28;;;;;;;28.00;8.63;;;;;;;-145.18;100.00;46633.06;5030436;28;20560;-80
2022/08/21 06:13:53;;;;;;;18.20;8.83;;;;;;;-145.18;100.00;46635.00;5029487;28;20065;-80
2022/08/21 06:16:18;;;;;;;27.50;8.87;;;;;;;-145.18;100.00;46631.09;5031781;28;20119;-80
2022/08/21 06:18:45;;;;;;;20.97;9.40;;;;;;;-145.18;100.00;46633.06;5033839;28;20034;-81
2022/08/21 06:21:12;;;;;;;18.37;8.80;;;;;;;-145.18;100.00;46631.09;5015673;28;20642;-80
2022/08/21 06:23:38;;;;;;;20.07;10.60;;;;;;;-145.18;100.00;46631.09;5032880;28;20100;-80
2022/08/21 06:26:05;;;;;;;18.50;9.07;;;;;;;-145.18;100.00;46629.13;5032921;28;20112;-80
2022/08/21 06:28:32;;;;;;;22.13;9.80;;;;;;;-145.18;100.00;46627.19;5033160;28;20481;-80
2022/08/21 06:30:57;;;;;;;18.50;9.97;;;;;;;-145.18;100.00;46629.13;5033380;28;20120;-80
2022/08/21 06:33:23;;;;;;;21.73;10.00;;;;;;;-145.18;100.00;46625.22;5033169;28;20033;-80
2022/08/21 06:35:49;;;;;;;27.37;9.17;;;;;;;-145.18;100.00;46625.22;5033694;28;20033;-80
2022/08/21 06:38:14;;;;;;;24.27;9.40;;;;;;;-145.18;100.00;46625.22;5033070;28;20057;-80
2022/08/21 06:40:40;;;;;;;24.33;8.43;;;;;;;-145.18;100.00;46621.31;5033632;28;20037;-78
2022/08/21 06:43:10;;;;;;;20.43;9.03;;;;;;;-145.18;100.00;46625.22;5033365;28;20030;-80
2022/08/21 06:45:36;;;;;;;22.90;8.87;;;;;;;-145.18;100.00;46623.28;5033322;28;20030;-81
2022/08/21 06:48:02;;;;;;;27.60;8.57;;;;;;;-145.18;100.00;46629.13;5015354;28;20160;-81
2022/08/21 06:50:28;;;;;;;20.27;7.23;;;;;;;-145.18;100.00;46625.22;5033761;28;20123;-80
2022/08/21 06:53:09;;;;;;;20.53;8.17;;;;;;;-145.18;100.00;46631.09;5032382;28;20476;-79
2022/08/21 06:55:36;;;;;;;21.63;7.27;;;;;;;-145.18;100.00;46629.13;5033510;28;20033;-77
2022/08/21 06:58:02;;;;;;;22.60;7.57;;;;;;;-145.18;100.00;46625.22;5032834;28;20562;-78
2022/08/21 07:00:28;;;;;;;19.73;7.10;;;;;;;-145.18;100.00;46631.09;5033235;28;20033;-78
2022/08/21 07:02:53;;;;;;;17.57;7.27;;;;;;;-145.18;100.00;46633.06;5031721;28;20565;-78
2022/08/21 07:05:19;;;;;;;14.43;6.20;;;;;;;-145.18;100.00;46635.00;5031983;28;20144;-79
2022/08/21 07:07:45;;;;;;;21.23;6.10;;;;;;;-145.18;100.00;46635.00;5032010;28;20127;-78
2022/08/21 07:10:11;;;;;;;18.67;6.87;;;;;;;-145.18;100.00;46631.09;5014953;28;20616;-78
2022/08/21 07:12:37;;;;;;;16.23;6.53;;;;;;;-145.18;100.00;46633.06;5031807;28;20030;-79
2022/08/21 07:15:02;;;;;;;21.50;6.50;;;;;;;-145.18;100.00;46636.94;5031994;28;20112;-79
2022/08/21 07:17:28;;;;;;;15.00;6.20;;;;;;;-145.18;100.00;46633.06;5031596;28;20540;-79
2022/08/21 07:19:53;;;;;;;21.40;6.07;;;;;;;-145.18;100.00;46635.00;5031936;28;20038;-79
2022/08/21 07:22:20;;;;;;;19.00;6.90;;;;;;;-145.18;100.00;46636.94;5014808;28;20087;-79
2022/08/21 07:24:45;;;;;;;20.77;6.67;;;;;;;-145.18;100.00;46636.94;5031728;28;20060;-79
2022/08/21 07:27:11;;;;;;;18.23;6.20;;;;;;;-145.18;100.00;46635.00;5031404;28;20036;-79
2022/08/21 07:29:36;;;;;;;18.63;6.27;;;;;;;-145.18;100.00;46633.06;5031490;28;20037;-79
2022/08/21 07:32:02;;;;;;;17.43;6.07;;;;;;;-145.18;100.00;46635.00;5032314;28;20080;-79
2022/08/21 07:34:28;;;;;;;21.73;6.43;;;;;;;-145.18;100.00;46636.94;5032022;28;20565;-79
2022/08/21 07:36:53;;;;;;;13.77;5.97;;;;;;;-145.18;100.00;46636.94;5031946;28;20041;-79
2022/08/21 07:39:18;;;;;;;18.10;5.77;;;;;;;-145.18;100.00;46638.91;5031951;28;20489;-80
2022/08/21 07:41:44;;;;;;;17.97;5.90;;;;;;;-145.18;100.00;46640.88;5032314;28;20552;-80
2022/08/21 07:44:09;;;;;;;23.47;7.13;;;;;;;-145.18;100.00;46636.94;5031238;28;20029;-80
2022/08/21 07:46:34;;;;;;;18.63;6.20;;;;;;;-145.18;100.00;46642.81;5031769;28;20492;-80
2022/08/21 07:49:00;;;;;;;22.13;6.30;;;;;;;-145.18;100.00;46640.88;5013773;28;20038;-80
2022/08/21 07:51:27;;;;;;;21.00;5.80;;;;;;;-145.18;100.00;46642.81;5032323;28;20034;-80
2022/08/21 07:53:54;;;;;;;14.77;5.43;;;;;;;-145.18;100.00;46640.88;5031522;28;20041;-80
2022/08/21 07:56:20;;;;;;;23.37;6.13;;;;;;;-145.18;100.00;46642.81;5031336;28;20029;-81
2022/08/21 07:58:46;;;;;;;22.40;5.77;;;;;;;-145.18;100.00;46648.69;5031285;28;20036;-81
2022/08/21 08:01:12;;;;;;;19.27;6.30;;;;;;;-145.18;100.00;46640.88;5031845;28;20044;-81
2022/08/21 08:03:38;;;;;;;18.70;6.40;;;;;;;-145.18;100.00;46644.78;5031522;28;20422;-81
2022/08/21 08:06:04;;;;;;;16.43;5.93;;;;;;;-145.18;100.00;46642.81;5032111;28;20033;-81
2022/08/21 08:08:31;;;;;;;14.87;5.27;;;;;;;-145.18;100.00;46648.69;5030752;28;20036;-81
2022/08/21 08:10:58;;;;;;;21.53;6.33;;;;;;;-145.18;100.00;46648.69;5031685;28;20080;-81
2022/08/21 08:13:25;;;;;;;17.73;5.47;;;;;;;-145.18;100.00;46652.59;5013832;28;20062;-81
2022/08/21 08:15:50;;;;;;;18.30;5.60;;;;;;;-145.18;100.00;46644.78;5011995;28;20038;-82
2022/08/21 08:18:16;;;;;;;16.67;5.67;;;;;;;-145.18;100.00;46654.53;5012305;28;20037;-82
2022/08/21 08:20:41;;;;;;;16.63;5.57;;;;;;;-145.18;100.00;46652.59;5012641;28;20122;-82
2022/08/21 08:23:10;;;;;;;19.20;5.07;;;;;;;-145.18;100.00;46648.69;5012052;28;20400;-82
2022/08/21 08:25:35;;;;;;;17.73;5.13;;;;;;;-145.18;100.00;46658.44;5012570;28;20042;-82
2022/08/21 08:28:00;;;;;;;18.13;5.53;;;;;;;-145.18;100.00;46654.53;4994478;28;20751;-82
2022/08/21 08:30:26;;;;;;;12.20;4.93;;;;;;;-145.18;100.00;46662.34;5012131;28;20025;-82
2022/08/21 08:32:51;;;;;;;24.97;5.43;;;;;;;-145.18;100.00;46654.53;5011956;28;20038;-83
2022/08/21 08:35:17;;;;;;;14.23;4.20;;;;;;;-145.18;100.00;46664.31;5012145;28;20065;-82
2022/08/21 08:37:45;;;;;;;22.57;6.53;;;;;;;-145.18;100.00;46660.41;5012281;28;20038;-82
2022/08/21 08:40:39;;;;;;;12.47;5.00;;;;;;;-145.18;100.00;46666.25;4993681;28;20110;-81
2022/08/21 08:43:06;;;;;;;15.07;4.73;;;;;;;-145.18;100.00;46662.34;5008629;28;20050;-82
2022/08/21 08:45:36;;;;;;;15.87;4.90;;;;;;;-145.18;100.00;46660.41;5012835;28;20026;-82
2022/08/21 08:48:07;;;;;;;13.40;4.40;;;;;;;-145.18;100.00;46668.22;5005664;28;20113;-82
2022/08/21 08:50:54;;;;;;;18.93;5.00;;;;;;;-145.18;100.00;46668.22;4999728;28;20030;-82
2022/08/21 08:53:29;;;;;;;16.80;4.27;;;;;;;-145.18;100.00;46672.13;5017306;28;20040;-82
2022/08/21 08:55:55;;;;;;;;;;;;;;;-145.18;100.00;46668.22;5031530;28;20865;-82
2022/08/21 08:58:26;;;;;;;16.05;5.50;;;;;;;-145.18;100.00;46670.16;5031398;28;19952;-82
2022/08/21 09:00:54;;;;;;;16.47;5.00;;;;;;;-145.18;100.00;46672.13;5031441;28;20038;-82
2022/08/21 09:03:22;;;;;;;11.80;4.37;;;;;;;-145.18;100.00;46672.13;5015845;28;20049;-82
2022/08/21 09:05:57;;;;;;;16.00;4.13;;;;;;;-145.18;100.00;46672.13;5019170;28;20052;-82
2022/08/21 09:08:42;;;;;;;12.45;5.03;;;;;;;-145.18;100.00;46674.06;5030734;28;20033;-82
2022/08/21 09:11:21;;;;;;;15.47;4.27;;;;;;;-145.18;100.00;46672.13;5030662;28;20061;-82
2022/08/21 09:13:55;;;;;;;13.33;4.53;;;;;;;-145.18;100.00;46672.13;5028843;28;20048;-82
2022/08/21 09:16:35;;;;;;;13.67;4.27;;;;;;;-145.18;100.00;46668.22;5028333;28;20032;-82
2022/08/21 09:19:21;;;;;;;15.93;4.20;;;;;;;-145.18;100.00;46674.06;5028142;28;20583;-82
2022/08/21 09:21:57;;;;;;;10.43;4.00;;;;;;;-145.18;100.00;46672.13;5029589;28;20397;-82
2022/08/21 09:24:32;;;;;;;13.80;4.60;;;;;;;-145.18;100.00;46676.03;5029901;28;20132;-82
2022/08/21 09:27:09;;;;;;;11.17;4.07;;;;;;;-145.18;100.00;46660.41;5030775;28;20390;-82
2022/08/21 09:29:38;;;;;;;13.67;4.40;;;;;;;-145.18;100.00;46668.22;5030708;28;20075;-82
2022/08/21 09:32:27;;;;;;;12.13;4.47;;;;;;;-145.18;100.00;46662.34;5030720;28;20089;-82
2022/08/21 09:34:57;;;;;;;10.43;4.40;;;;;;;-145.18;100.00;46668.22;5030290;28;20037;-82
2022/08/21 09:37:23;;;;;;;13.90;4.03;;;;;;;-145.18;100.00;46660.41;5030854;28;20038;-81
2022/08/21 09:39:48;;;;;;;14.30;4.10;;;;;;;-145.18;100.00;46597.88;5030766;28;20048;-82
2022/08/21 09:42:23;;;;;;;16.13;5.13;;;;;;;-145.18;100.00;46586.16;5030607;28;20117;-82
2022/08/21 09:44:48;;;;;;;18.27;4.80;;;;;;;-145.18;100.00;46584.22;5030676;28;20049;-81
2022/08/21 09:47:18;;;;;;;19.27;4.30;;;;;;;-145.18;100.00;46607.66;5030792;28;20110;-80
2022/08/21 09:49:44;;;;;;;9.53;4.27;;;;;;;-145.18;100.00;46636.94;5024080;28;20067;-79
2022/08/21 09:52:25;;;;;;;14.37;3.87;;;;;;;-145.18;100.00;46660.41;5021697;28;20474;-81
2022/08/21 09:54:54;;;;;;;9.13;3.63;;;;;;;-145.18;100.00;46654.53;5022884;28;20041;-81
2022/08/21 09:57:39;;;;;;;11.87;2.70;;;;;;;-145.18;100.00;46648.69;5022009;28;20040;-81
2022/08/21 10:00:22;;;;;;;13.52;3.58;;;;;;;-145.18;100.00;46580.31;5030339;28;20034;-81
2022/08/21 10:02:47;;;;;;;10.97;2.83;;;;;;;-145.18;100.00;46576.41;5028674;28;20387;-81
2022/08/21 10:05:23;;;;;;;15.07;3.67;;;;;;;-145.18;100.00;46578.34;5015157;28;20049;-82
2022/08/21 10:07:49;;;;;;;12.47;3.60;;;;;;;-145.18;100.00;46556.88;5019292;28;20042;-82
2022/08/21 10:10:23;;;;;;;14.23;3.40;;;;;;;-145.18;100.00;46551.00;5030268;28;20084;-81
2022/08/21 10:13:20;;;;;;;9.67;3.03;;;;;;;-145.18;100.00;46547.09;5030984;28;20080;-81
2022/08/21 10:15:59;;;;;;;13.30;2.83;;;;;;;-145.18;100.00;46558.81;5028499;28;20033;-81
2022/08/21 10:18:40;;;;;;;10.10;3.00;;;;;;;-145.18;100.00;46572.50;5029932;28;20029;-82
2022/08/21 10:21:26;;;;;;;9.47;2.93;;;;;;;-145.18;100.00;46552.97;5018463;28;20033;-82
2022/08/21 10:24:10;;;;;;;;;;;;;;;-145.18;100.00;46574.44;5017410;28;20041;-82
2022/08/21 10:27:07;;;;;;;11.40;2.47;;;;;;;-145.18;100.00;46560.78;5027470;28;20455;-81
2022/08/21 10:29:43;;;;;;;7.40;2.20;;;;;;;-145.18;100.00;46572.50;5031438;28;20120;-82
2022/08/21 10:32:27;;;;;;;17.97;2.70;;;;;;;-145.18;100.00;46549.06;5029776;28;20579;-81
2022/08/21 10:35:30;;;;;;;9.07;2.23;;;;;;;-145.18;100.00;46824.47;5029964;28;20037;-82
2022/08/21 10:37:58;;;;;;;9.27;2.73;;;;;;;-145.18;100.00;47174.16;4977874;28;20536;-82
2022/08/21 10:40:48;;;;;;;10.97;2.47;;;;;;;-145.18;100.00;47174.16;5020748;28;20112;-80
2022/08/21 10:43:46;;;;;;;9.03;2.67;;;;;;;-145.18;100.00;47021.78;5028114;28;20029;-81
2022/08/21 10:46:42;;;;;;;11.10;2.40;;;;;;;-145.18;100.00;47111.66;5031174;28;20052;-81
2022/08/21 10:49:10;;;;;;;12.07;2.40;;;;;;;-145.18;100.00;47140.94;5026333;28;20470;-80
2022/08/21 10:51:46;;;;;;;10.43;2.13;;;;;;;-145.18;100.00;47139.00;5026674;28;20033;-80
2022/08/21 10:54:57;;;;;;;8.43;2.00;;;;;;;-145.18;100.00;47076.47;5029406;28;20037;-81
2022/08/21 10:57:36;;;;;;;7.00;1.90;;;;;;;-145.18;100.00;47037.41;4950102;29;20045;-81
2022/08/21 11:00:10;;;;;;;7.77;2.00;;;;;;;-145.18;100.00;47049.13;5018556;28;20402;-80
2022/08/21 11:02:46;;;;;;;11.17;2.57;;;;;;;-145.18;100.00;47017.88;5029109;28;20059;-81
2022/08/21 11:05:13;;;;;;;;;;;;;;;-145.18;100.00;47015.91;5053549;28;20415;-80
2022/08/21 11:07:51;;;;;;;12.07;2.20;;;;;;;-145.18;100.00;46998.34;5053598;28;19913;-81
2022/08/21 11:10:24;;;;;;;9.17;2.23;;;;;;;-145.18;100.00;46998.34;5053035;28;20031;-81